ACA15M ESSA-EFHK
Flight info
| Callsign | ACA15M |
|---|---|
| Flight time | 0h 35m |
| Altitude | 37000 |
| Route | TOVRI N851 RIKUM DCT RIRIP Y364 LAKUT |
| Aircraft | B77L/H-SDE1E2E3FGHIJ2J3J4J5M1RWXY/LB1D1 |
Departure
| Time | 2026-04-23 17:51 |
|---|---|
| Airport | Stockholm-Arlanda Airport (ESSA) |
Arrival
| Time | 2026-04-23 18:26 |
|---|---|
| Airport | Helsinki Vantaa Airport (EFHK) |
| Time | Latitude | Longitude | Altitude | Speed | Heading |
|---|---|---|---|---|---|
| 2026-04-23 17:14 | 59.65343 | 17.93554 | 142 ft | 0 kts | 75° |
| 2026-04-23 17:40 | 59.65343 | 17.93552 | 142 ft | 1 kts | 75° |
| 2026-04-23 17:41 | 59.65338 | 17.93523 | 142 ft | 3 kts | 72° |
| 2026-04-23 17:41 | 59.65323 | 17.93450 | 142 ft | 3 kts | 54° |
| 2026-04-23 17:41 | 59.65311 | 17.93422 | 142 ft | 3 kts | 23° |
| 2026-04-23 17:42 | 59.65298 | 17.93417 | 142 ft | 0 kts | 346° |
| 2026-04-23 17:43 | 59.65299 | 17.93416 | 142 ft | 1 kts | 346° |
| 2026-04-23 17:44 | 59.65306 | 17.93413 | 142 ft | 1 kts | 345° |
| 2026-04-23 17:44 | 59.65318 | 17.93406 | 142 ft | 2 kts | 345° |
| 2026-04-23 17:44 | 59.65428 | 17.93350 | 142 ft | 10 kts | 346° |
| 2026-04-23 17:45 | 59.65499 | 17.93337 | 142 ft | 10 kts | 355° |
| 2026-04-23 17:45 | 59.65630 | 17.93313 | 142 ft | 8 kts | 23° |
| 2026-04-23 17:45 | 59.65672 | 17.93390 | 142 ft | 8 kts | 46° |
| 2026-04-23 17:46 | 59.65712 | 17.93470 | 142 ft | 0 kts | 46° |
| 2026-04-23 17:47 | 59.65721 | 17.93488 | 142 ft | 10 kts | 45° |
| 2026-04-23 17:47 | 59.65790 | 17.93629 | 142 ft | 11 kts | 46° |
| 2026-04-23 17:47 | 59.65862 | 17.93770 | 142 ft | 3 kts | 78° |
| 2026-04-23 17:48 | 59.65863 | 17.93773 | 142 ft | 0 kts | 78° |
| 2026-04-23 17:50 | 59.65913 | 17.94175 | 144 ft | 64 kts | 76° |
| 2026-04-23 17:50 | 59.66091 | 17.95576 | 143 ft | 143 kts | 76° |
| 2026-04-23 17:51 | 59.66369 | 17.97837 | 371 ft | 177 kts | 77° |
| 2026-04-23 17:51 | 59.66658 | 18.00122 | 1171 ft | 169 kts | 71° |
| 2026-04-23 17:51 | 59.67276 | 18.04868 | 2494 ft | 186 kts | 72° |
| 2026-04-23 17:52 | 59.67542 | 18.07380 | 3102 ft | 197 kts | 72° |
| 2026-04-23 17:52 | 59.68193 | 18.13387 | 3888 ft | 246 kts | 72° |
| 2026-04-23 17:52 | 59.68584 | 18.16706 | 4712 ft | 250 kts | 71° |
| 2026-04-23 17:53 | 59.69364 | 18.23738 | 6171 ft | 263 kts | 71° |
| 2026-04-23 17:53 | 59.69826 | 18.27264 | 6873 ft | 266 kts | 60° |
| 2026-04-23 17:53 | 59.70659 | 18.30594 | 7460 ft | 272 kts | 58° |
| 2026-04-23 17:54 | 59.71495 | 18.33937 | 8448 ft | 270 kts | 58° |
| 2026-04-23 17:54 | 59.72317 | 18.37279 | 9497 ft | 267 kts | 58° |
| 2026-04-23 17:54 | 59.74044 | 18.44330 | 10635 ft | 301 kts | 58° |
| 2026-04-23 17:55 | 59.75998 | 18.52326 | 11411 ft | 350 kts | 59° |
| 2026-04-23 17:55 | 59.77089 | 18.56804 | 12009 ft | 365 kts | 59° |
| 2026-04-23 17:55 | 59.78203 | 18.61434 | 12858 ft | 377 kts | 59° |
| 2026-04-23 17:56 | 59.79349 | 18.66173 | 13824 ft | 384 kts | 58° |
| 2026-04-23 17:56 | 59.81667 | 18.75774 | 15940 ft | 386 kts | 58° |
| 2026-04-23 17:56 | 59.82827 | 18.80599 | 16914 ft | 389 kts | 58° |
| 2026-04-23 17:57 | 59.84001 | 18.85480 | 17822 ft | 394 kts | 57° |
| 2026-04-23 17:57 | 59.85189 | 18.90430 | 18632 ft | 399 kts | 57° |
| 2026-04-23 17:57 | 59.87592 | 19.00493 | 20227 ft | 406 kts | 57° |
| 2026-04-23 17:58 | 59.88804 | 19.05591 | 21013 ft | 409 kts | 57° |
| 2026-04-23 17:58 | 59.90027 | 19.10739 | 21775 ft | 413 kts | 57° |
| 2026-04-23 17:58 | 59.91259 | 19.15943 | 22528 ft | 417 kts | 57° |
| 2026-04-23 17:58 | 59.92500 | 19.21196 | 23276 ft | 421 kts | 57° |
| 2026-04-23 17:59 | 59.93752 | 19.26508 | 23959 ft | 425 kts | 56° |
| 2026-04-23 17:59 | 59.95014 | 19.31875 | 24560 ft | 429 kts | 56° |
| 2026-04-23 17:59 | 59.96277 | 19.37304 | 25157 ft | 435 kts | 58° |
| 2026-04-23 17:59 | 59.97378 | 19.42997 | 25735 ft | 445 kts | 63° |
| 2026-04-23 18:00 | 59.98195 | 19.49037 | 26306 ft | 455 kts | 68° |
| 2026-04-23 18:00 | 59.98927 | 19.55211 | 26861 ft | 459 kts | 68° |
| 2026-04-23 18:00 | 59.99669 | 19.61441 | 27400 ft | 463 kts | 68° |
| 2026-04-23 18:00 | 60.00418 | 19.67632 | 27944 ft | 466 kts | 68° |
| 2026-04-23 18:01 | 60.01186 | 19.73955 | 28449 ft | 470 kts | 68° |
| 2026-04-23 18:01 | 60.01956 | 19.80331 | 28953 ft | 474 kts | 68° |
| 2026-04-23 18:01 | 60.02726 | 19.86753 | 29494 ft | 476 kts | 68° |
| 2026-04-23 18:01 | 60.03490 | 19.93188 | 30161 ft | 474 kts | 68° |
| 2026-04-23 18:02 | 60.04243 | 19.99593 | 30803 ft | 472 kts | 68° |
| 2026-04-23 18:02 | 60.04989 | 20.05960 | 31426 ft | 469 kts | 68° |
| 2026-04-23 18:02 | 60.05729 | 20.12307 | 31995 ft | 468 kts | 67° |
| 2026-04-23 18:02 | 60.06470 | 20.18661 | 32541 ft | 468 kts | 67° |
| 2026-04-23 18:03 | 60.07206 | 20.24995 | 32983 ft | 469 kts | 67° |
| 2026-04-23 18:03 | 60.08704 | 20.37903 | 32990 ft | 482 kts | 67° |
| 2026-04-23 18:04 | 60.10223 | 20.51141 | 32965 ft | 492 kts | 68° |
| 2026-04-23 18:04 | 60.11728 | 20.64508 | 32955 ft | 491 kts | 68° |
| 2026-04-23 18:05 | 60.13216 | 20.77865 | 32951 ft | 490 kts | 68° |
| 2026-04-23 18:05 | 60.14693 | 20.91215 | 32953 ft | 490 kts | 68° |
| 2026-04-23 18:06 | 60.15743 | 21.04852 | 32947 ft | 503 kts | 77° |
| 2026-04-23 18:06 | 60.16036 | 21.18695 | 32858 ft | 483 kts | 77° |
| 2026-04-23 18:06 | 60.16171 | 21.25339 | 32439 ft | 472 kts | 77° |
| 2026-04-23 18:07 | 60.16319 | 21.31905 | 31644 ft | 470 kts | 77° |
| 2026-04-23 18:07 | 60.16481 | 21.38440 | 30904 ft | 469 kts | 77° |
| 2026-04-23 18:07 | 60.16643 | 21.44951 | 30291 ft | 465 kts | 77° |
| 2026-04-23 18:07 | 60.16799 | 21.51397 | 29722 ft | 459 kts | 77° |
| 2026-04-23 18:08 | 60.16900 | 21.55630 | 29318 ft | 456 kts | 77° |
| 2026-04-23 18:08 | 60.17099 | 21.64088 | 28449 ft | 451 kts | 77° |
| 2026-04-23 18:08 | 60.17246 | 21.70385 | 27699 ft | 452 kts | 77° |
| 2026-04-23 18:08 | 60.17393 | 21.76720 | 26749 ft | 456 kts | 77° |
| 2026-04-23 18:09 | 60.17537 | 21.83102 | 25831 ft | 458 kts | 77° |
| 2026-04-23 18:09 | 60.17673 | 21.89504 | 25032 ft | 459 kts | 78° |
| 2026-04-23 18:09 | 60.17806 | 21.95906 | 24188 ft | 459 kts | 78° |
| 2026-04-23 18:09 | 60.17937 | 22.02301 | 23357 ft | 459 kts | 78° |
| 2026-04-23 18:10 | 60.18061 | 22.08689 | 22538 ft | 456 kts | 78° |
| 2026-04-23 18:10 | 60.18179 | 22.15017 | 21833 ft | 451 kts | 79° |
| 2026-04-23 18:10 | 60.18291 | 22.21270 | 21176 ft | 445 kts | 79° |
| 2026-04-23 18:10 | 60.18400 | 22.27448 | 20527 ft | 440 kts | 79° |
| 2026-04-23 18:11 | 60.18508 | 22.33560 | 19926 ft | 435 kts | 79° |
| 2026-04-23 18:11 | 60.18613 | 22.39618 | 19312 ft | 431 kts | 79° |
| 2026-04-23 18:11 | 60.18715 | 22.45619 | 18717 ft | 428 kts | 79° |
| 2026-04-23 18:11 | 60.18814 | 22.51559 | 18121 ft | 425 kts | 79° |
| 2026-04-23 18:12 | 60.18911 | 22.57473 | 17455 ft | 422 kts | 80° |
| 2026-04-23 18:12 | 60.19004 | 22.63349 | 16849 ft | 419 kts | 80° |
| 2026-04-23 18:12 | 60.19090 | 22.69183 | 16227 ft | 416 kts | 80° |
| 2026-04-23 18:12 | 60.19177 | 22.74967 | 15638 ft | 412 kts | 81° |
| 2026-04-23 18:13 | 60.19260 | 22.80699 | 15071 ft | 409 kts | 81° |
| 2026-04-23 18:13 | 60.19340 | 22.86307 | 14498 ft | 405 kts | 81° |
| 2026-04-23 18:13 | 60.19416 | 22.91947 | 13953 ft | 402 kts | 82° |
| 2026-04-23 18:13 | 60.19488 | 22.97544 | 13364 ft | 399 kts | 82° |
| 2026-04-23 18:14 | 60.19557 | 23.03098 | 12831 ft | 395 kts | 82° |
| 2026-04-23 18:14 | 60.19621 | 23.08569 | 12397 ft | 388 kts | 82° |
| 2026-04-23 18:14 | 60.19684 | 23.13958 | 12073 ft | 385 kts | 82° |
| 2026-04-23 18:14 | 60.19748 | 23.19363 | 11871 ft | 389 kts | 82° |
| 2026-04-23 18:15 | 60.19812 | 23.24817 | 11617 ft | 392 kts | 82° |
| 2026-04-23 18:15 | 60.19872 | 23.30304 | 11369 ft | 393 kts | 83° |
| 2026-04-23 18:15 | 60.19927 | 23.35778 | 11137 ft | 390 kts | 83° |
| 2026-04-23 18:15 | 60.19980 | 23.41222 | 10887 ft | 389 kts | 83° |
| 2026-04-23 18:16 | 60.20029 | 23.46640 | 10639 ft | 387 kts | 83° |
| 2026-04-23 18:16 | 60.20076 | 23.52033 | 10383 ft | 385 kts | 83° |
| 2026-04-23 18:16 | 60.20122 | 23.57403 | 10141 ft | 383 kts | 83° |
| 2026-04-23 18:17 | 60.20206 | 23.68038 | 9926 ft | 379 kts | 84° |
| 2026-04-23 18:17 | 60.20245 | 23.73349 | 9898 ft | 381 kts | 84° |
| 2026-04-23 18:17 | 60.20282 | 23.78682 | 9862 ft | 382 kts | 84° |
| 2026-04-23 18:17 | 60.20317 | 23.84034 | 9462 ft | 380 kts | 84° |
| 2026-04-23 18:18 | 60.20347 | 23.89303 | 8924 ft | 376 kts | 84° |
| 2026-04-23 18:18 | 60.20376 | 23.94529 | 8388 ft | 369 kts | 84° |
| 2026-04-23 18:18 | 60.20401 | 23.99629 | 7930 ft | 362 kts | 85° |
| 2026-04-23 18:18 | 60.20424 | 24.04629 | 7671 ft | 352 kts | 85° |
| 2026-04-23 18:19 | 60.20445 | 24.09468 | 7381 ft | 341 kts | 85° |
| 2026-04-23 18:19 | 60.20465 | 24.14188 | 6948 ft | 335 kts | 85° |
| 2026-04-23 18:19 | 60.20484 | 24.18827 | 6518 ft | 329 kts | 86° |
| 2026-04-23 18:19 | 60.20501 | 24.23393 | 6103 ft | 323 kts | 86° |
| 2026-04-23 18:20 | 60.20515 | 24.27860 | 5736 ft | 316 kts | 86° |
| 2026-04-23 18:20 | 60.20528 | 24.32219 | 5379 ft | 309 kts | 86° |
| 2026-04-23 18:20 | 60.20539 | 24.36486 | 5035 ft | 302 kts | 86° |
| 2026-04-23 18:20 | 60.20548 | 24.40666 | 4685 ft | 296 kts | 86° |
| 2026-04-23 18:21 | 60.20556 | 24.44708 | 4340 ft | 290 kts | 86° |
| 2026-04-23 18:21 | 60.20564 | 24.48721 | 3996 ft | 284 kts | 86° |
| 2026-04-23 18:21 | 60.20571 | 24.52657 | 3655 ft | 279 kts | 86° |
| 2026-04-23 18:21 | 60.20575 | 24.56516 | 3312 ft | 273 kts | 87° |
| 2026-04-23 18:22 | 60.20577 | 24.60308 | 2963 ft | 269 kts | 87° |
| 2026-04-23 18:22 | 60.20585 | 24.64031 | 2614 ft | 261 kts | 84° |
| 2026-04-23 18:22 | 60.21047 | 24.67433 | 2384 ft | 241 kts | 55° |
| 2026-04-23 18:22 | 60.22003 | 24.69969 | 2301 ft | 224 kts | 47° |
| 2026-04-23 18:23 | 60.22676 | 24.71531 | 2283 ft | 212 kts | 45° |
| 2026-04-23 18:23 | 60.24917 | 24.76421 | 2044 ft | 204 kts | 44° |
| 2026-04-23 18:24 | 60.26756 | 24.80472 | 1493 ft | 187 kts | 44° |
| 2026-04-23 18:24 | 60.27603 | 24.82306 | 1263 ft | 171 kts | 44° |
| 2026-04-23 18:24 | 60.28371 | 24.83985 | 1012 ft | 156 kts | 45° |
| 2026-04-23 18:25 | 60.29752 | 24.87005 | 643 ft | 149 kts | 44° |
| 2026-04-23 18:25 | 60.30457 | 24.88559 | 452 ft | 152 kts | 45° |
| 2026-04-23 18:25 | 60.31175 | 24.90129 | 257 ft | 153 kts | 45° |
| 2026-04-23 18:25 | 60.31880 | 24.91678 | 171 ft | 140 kts | 45° |
| 2026-04-23 18:26 | 60.32472 | 24.92975 | 166 ft | 109 kts | 47° |
| 2026-04-23 18:26 | 60.32900 | 24.93918 | 181 ft | 73 kts | 47° |
| 2026-04-23 18:26 | 60.33022 | 24.94191 | 182 ft | 6 kts | 48° |
| 2026-04-23 18:26 | 60.33093 | 24.94347 | 178 ft | 21 kts | 48° |
| 2026-04-23 18:27 | 60.33118 | 24.94621 | 168 ft | 23 kts | 94° |
| 2026-04-23 18:27 | 60.33110 | 24.94878 | 166 ft | 9 kts | 94° |
| 2026-04-23 18:27 | 60.33108 | 24.94967 | 166 ft | 4 kts | 93° |
| 2026-04-23 18:27 | 60.33108 | 24.94971 | 166 ft | 0 kts | 93° |
| 2026-04-23 18:28 | 60.33107 | 24.94983 | 166 ft | 4 kts | 93° |
| 2026-04-23 18:28 | 60.33111 | 24.95137 | 166 ft | 14 kts | 74° |
| 2026-04-23 18:29 | 60.33166 | 24.95300 | 166 ft | 14 kts | 48° |
| 2026-04-23 18:29 | 60.33209 | 24.95448 | 166 ft | 12 kts | 85° |
| 2026-04-23 18:29 | 60.33171 | 24.95585 | 166 ft | 12 kts | 135° |
| 2026-04-23 18:29 | 60.33108 | 24.95700 | 166 ft | 13 kts | 137° |
| 2026-04-23 18:30 | 60.33030 | 24.95819 | 166 ft | 15 kts | 150° |
| 2026-04-23 18:30 | 60.32933 | 24.95931 | 166 ft | 17 kts | 150° |
| 2026-04-23 18:30 | 60.32903 | 24.96115 | 166 ft | 15 kts | 89° |
| 2026-04-23 18:30 | 60.32835 | 24.96263 | 166 ft | 15 kts | 150° |
| 2026-04-23 18:31 | 60.32744 | 24.96367 | 166 ft | 14 kts | 150° |
| 2026-04-23 18:31 | 60.32676 | 24.96443 | 166 ft | 6 kts | 151° |
| 2026-04-23 18:31 | 60.32631 | 24.96493 | 166 ft | 12 kts | 151° |
| 2026-04-23 18:31 | 60.32511 | 24.96626 | 167 ft | 25 kts | 151° |
| 2026-04-23 18:32 | 60.32422 | 24.96727 | 167 ft | 10 kts | 151° |
| 2026-04-23 18:32 | 60.32361 | 24.96793 | 167 ft | 10 kts | 152° |
| 2026-04-23 18:32 | 60.32307 | 24.96848 | 165 ft | 9 kts | 153° |
| 2026-04-23 18:32 | 60.32243 | 24.96913 | 165 ft | 13 kts | 153° |
| 2026-04-23 18:33 | 60.32161 | 24.96997 | 165 ft | 14 kts | 153° |
| 2026-04-23 18:33 | 60.32066 | 24.97096 | 165 ft | 15 kts | 153° |
| 2026-04-23 18:33 | 60.31989 | 24.97176 | 165 ft | 14 kts | 153° |
| 2026-04-23 18:33 | 60.31881 | 24.97289 | 165 ft | 21 kts | 152° |
| 2026-04-23 18:34 | 60.31740 | 24.97434 | 165 ft | 24 kts | 153° |
| 2026-04-23 18:34 | 60.31600 | 24.97579 | 165 ft | 15 kts | 153° |
| 2026-04-23 18:34 | 60.31566 | 24.97613 | 165 ft | 5 kts | 154° |
| 2026-04-23 18:34 | 60.31529 | 24.97649 | 165 ft | 9 kts | 154° |
| 2026-04-23 18:35 | 60.31426 | 24.97757 | 165 ft | 20 kts | 152° |
| 2026-04-23 18:35 | 60.31305 | 24.97885 | 166 ft | 20 kts | 153° |
| 2026-04-23 18:35 | 60.31183 | 24.98009 | 166 ft | 20 kts | 153° |
| 2026-04-23 18:35 | 60.31092 | 24.98095 | 166 ft | 10 kts | 167° |
| 2026-04-23 18:36 | 60.31043 | 24.98020 | 166 ft | 8 kts | 244° |
| 2026-04-23 18:36 | 60.31037 | 24.97953 | 166 ft | 4 kts | 292° |
| 2026-04-23 18:36 | 60.31061 | 24.97922 | 166 ft | 3 kts | 333° |
| 2026-04-23 18:36 | 60.31068 | 24.97914 | 166 ft | 0 kts | 333° |